McMullen, Alabama
Current Conditions -  °F | °C
As of 2:53 PM on Friday 31 Oct 2014 (Local Time) from KTCL Reporting Station
Broken Clouds Broken Clouds  
Wind Chill: 69°   Ceiling: 6000
Heat Index: 69°   Visibility: 10mi
Dew Point: 43°   Wind: 14mph
Humidity: 39%   Direction: 320°NW
Pressure: 29.96"   Gusts: 18mph
Location:  33.1204°N, 88.1617°W
Report Text: KTCL 311953Z 32012G16KT 10SM BKN060 21/06 A2996 RMK AO2 SLP143 T02060061
Loading
Personal Weather Stations






























Interactive Weather Map
Tropical Storm Tracking
New forecast layout! Learn more

10-Day Weather Forecast

Advertisements
Track Severe Weather on mobile